Walthill, Nebraska
Current Conditions -  °F | °C
As of 2:52 PM on Friday 19 Dec 2014 (Local Time) from KSUX Reporting Station
Overcast Overcast  
Wind Chill: 26°   Ceiling: 1600
Heat Index: 35°   Visibility: 10mi
Dew Point: 28°   Wind: 15mph
Humidity: 76%   Direction: 190°S
Pressure: 30.14"   Gusts: NA
Location:  42.15°N, 96.49°W
Report Text: KSUX 192052Z 19013KT 10SM OVC016 02/M02 A3014 RMK AO2 SLP216 T00171022 56017
Loading
Personal Weather Stations






























Interactive Weather Map New forecast layout! Learn more

10-Day Weather Forecast

Advertisements
Track Severe Weather on mobile